createdAt,value
2018-04-22T00:00:44.356Z,9.30
2018-04-22T00:03:11.991Z,9.30
2018-04-22T00:05:39.602Z,9.20
2018-04-22T00:08:07.237Z,9.20
2018-04-22T00:10:34.852Z,9.20
2018-04-22T00:13:02.484Z,9.20
2018-04-22T00:15:30.861Z,9.10
2018-04-22T00:17:59.253Z,9.10
2018-04-22T00:20:27.618Z,9.00
2018-04-22T00:22:55.996Z,9.00
2018-04-22T00:25:24.395Z,9.00
2018-04-22T00:27:51.997Z,9.00
2018-04-22T00:30:20.106Z,8.90
2018-04-22T00:32:49.439Z,8.90
2018-04-22T00:35:17.073Z,8.90
2018-04-22T00:37:45.447Z,8.90
2018-04-22T00:40:13.844Z,8.90
2018-04-22T00:42:41.450Z,8.80
2018-04-22T00:45:09.090Z,8.80
2018-04-22T00:47:36.689Z,8.80
2018-04-22T00:50:04.330Z,8.80
2018-04-22T00:52:31.943Z,8.80
2018-04-22T00:54:59.565Z,8.80
2018-04-22T00:57:27.162Z,8.70
2018-04-22T00:59:54.792Z,8.60
2018-04-22T01:02:22.406Z,8.60
2018-04-22T01:04:50.052Z,8.50
2018-04-22T01:07:18.147Z,8.50
2018-04-22T01:09:45.751Z,8.40
2018-04-22T01:12:14.151Z,8.30
2018-04-22T01:14:41.769Z,8.30
2018-04-22T01:17:09.412Z,8.20
2018-04-22T01:19:37.028Z,8.20
2018-04-22T01:22:05.415Z,8.10
2018-04-22T01:24:33.025Z,8.00
2018-04-22T01:27:00.680Z,8.00
2018-04-22T01:29:28.291Z,8.00
2018-04-22T01:31:55.960Z,8.00
2018-04-22T01:34:23.564Z,7.90
2018-04-22T01:36:51.196Z,7.90
2018-04-22T01:39:20.150Z,7.90
2018-04-22T01:41:48.544Z,7.90
2018-04-22T01:44:16.921Z,7.80
2018-04-22T01:46:45.336Z,7.80
2018-04-22T01:49:12.946Z,7.80
2018-04-22T01:51:41.350Z,7.80
2018-04-22T01:54:08.964Z,7.80
2018-04-22T01:56:36.617Z,7.80
2018-04-22T01:59:04.211Z,7.70
2018-04-22T02:01:32.604Z,7.60
2018-04-22T02:04:00.222Z,7.60
2018-04-22T02:06:27.888Z,7.50
2018-04-22T02:08:55.499Z,7.40
2018-04-22T02:11:23.179Z,7.30
2018-04-22T02:13:50.767Z,7.20
2018-04-22T02:16:19.384Z,7.20
2018-04-22T02:18:48.423Z,7.10
2018-04-22T02:21:16.064Z,7.00
2018-04-22T02:23:43.687Z,7.10
2018-04-22T02:26:12.066Z,7.00
2018-04-22T02:28:40.460Z,7.00
2018-04-22T02:31:08.075Z,7.00
2018-04-22T02:33:35.713Z,7.00
2018-04-22T02:36:03.330Z,7.00
2018-04-22T02:38:31.732Z,6.90
2018-04-22T02:40:59.340Z,6.90
2018-04-22T02:43:27.001Z,6.90
2018-04-22T02:45:54.654Z,6.90
2018-04-22T02:48:22.265Z,6.90
2018-04-22T02:50:49.895Z,6.90
2018-04-22T02:53:18.130Z,6.80
2018-04-22T02:55:45.761Z,6.80
2018-04-22T02:58:13.379Z,6.70
2018-04-22T03:00:41.012Z,6.70
2018-04-22T03:03:08.616Z,6.70
2018-04-22T03:05:37.036Z,6.70
2018-04-22T03:08:04.647Z,6.70
2018-04-22T03:10:32.268Z,6.70
2018-04-22T03:12:59.882Z,6.70
2018-04-22T03:15:28.285Z,6.60
2018-04-22T03:17:55.900Z,6.60
2018-04-22T03:20:23.530Z,6.60
2018-04-22T03:22:51.141Z,6.60
2018-04-22T03:25:19.642Z,6.50
2018-04-22T03:27:47.289Z,6.50
2018-04-22T03:30:15.806Z,6.40
2018-04-22T03:32:43.445Z,6.40
2018-04-22T03:35:11.062Z,6.40
2018-04-22T03:37:38.702Z,6.40
2018-04-22T03:40:06.354Z,6.40
2018-04-22T03:42:34.031Z,6.30
2018-04-22T03:45:01.630Z,6.30
2018-04-22T03:47:30.041Z,6.30
2018-04-22T03:49:57.653Z,6.30
2018-04-22T03:52:25.297Z,6.30
2018-04-22T03:54:52.891Z,6.30
2018-04-22T03:57:21.313Z,6.20
2018-04-22T03:59:50.137Z,6.20
2018-04-22T04:02:18.767Z,6.20
2018-04-22T04:04:46.368Z,6.20
2018-04-22T04:07:14.006Z,6.10
2018-04-22T04:09:41.619Z,6.10
2018-04-22T04:12:10.021Z,6.10
2018-04-22T04:14:37.662Z,6.00
2018-04-22T04:17:06.050Z,6.10
2018-04-22T04:19:45.562Z,6.10
2018-04-22T04:22:24.948Z,6.10
2018-04-22T04:25:04.337Z,6.10
2018-04-22T04:27:45.203Z,6.10
2018-04-22T04:30:12.845Z,6.10
2018-04-22T04:32:40.457Z,6.20
2018-04-22T04:35:08.093Z,6.20
2018-04-22T04:37:36.472Z,6.10
2018-04-22T04:40:04.882Z,6.20
2018-04-22T04:42:32.524Z,6.10
2018-04-22T04:45:00.906Z,6.20
2018-04-22T04:47:29.283Z,6.20
2018-04-22T04:49:56.910Z,6.20
2018-04-22T04:52:24.511Z,6.20
2018-04-22T04:54:52.146Z,6.30
2018-04-22T04:57:19.761Z,6.30
2018-04-22T04:59:48.054Z,6.30
2018-04-22T05:02:15.656Z,6.40
2018-04-22T05:04:43.302Z,6.40
2018-04-22T05:07:10.939Z,6.40
2018-04-22T05:09:38.533Z,6.50
2018-04-22T05:12:06.928Z,6.50
2018-04-22T05:14:34.538Z,6.50
2018-04-22T05:17:02.184Z,6.60
2018-04-22T05:19:29.799Z,6.60
2018-04-22T05:21:58.177Z,6.70
2018-04-22T05:24:26.552Z,6.80
2018-04-22T05:26:54.949Z,6.90
2018-04-22T05:29:22.556Z,6.80
2018-04-22T05:31:50.189Z,7.00
2018-04-22T05:34:19.058Z,7.00
2018-04-22T05:36:46.692Z,7.10
2018-04-22T05:39:15.075Z,7.30
2018-04-22T05:41:43.504Z,7.40
2018-04-22T05:44:11.101Z,7.40
2018-04-22T05:46:38.749Z,7.50
2018-04-22T05:49:06.366Z,7.60
2018-04-22T05:51:34.013Z,7.70
2018-04-22T05:54:01.633Z,7.80
2018-04-22T05:56:29.222Z,8.00
2018-04-22T05:58:56.877Z,8.10
2018-04-22T06:01:25.280Z,8.50
2018-04-22T06:03:52.923Z,8.40
2018-04-22T06:06:21.287Z,8.80
2018-04-22T06:08:49.898Z,8.80
2018-04-22T06:11:18.102Z,9.00
2018-04-22T06:13:45.743Z,9.20
2018-04-22T06:16:13.366Z,9.40
2018-04-22T06:18:41.779Z,9.90
2018-04-22T06:21:09.396Z,9.80
2018-04-22T06:23:37.040Z,10.10
2018-04-22T06:26:05.043Z,10.30
2018-04-22T06:28:33.517Z,10.80
2018-04-22T06:31:01.898Z,11.10
2018-04-22T06:33:30.294Z,11.30
2018-04-22T06:35:57.912Z,11.30
2018-04-22T06:38:25.568Z,11.50
2018-04-22T06:40:53.198Z,11.80
2018-04-22T06:43:20.807Z,11.90
2018-04-22T06:45:49.350Z,12.10
2018-04-22T06:48:16.988Z,12.30
2018-04-22T06:50:44.639Z,12.50
2018-04-22T06:53:12.253Z,12.80
2018-04-22T06:55:39.902Z,12.90
2018-04-22T06:58:07.537Z,13.20
2018-04-22T07:00:35.179Z,13.40
2018-04-22T07:03:02.897Z,13.60
2018-04-22T07:05:30.543Z,13.80
2018-04-22T07:07:58.180Z,14.00
2018-04-22T07:10:25.821Z,14.30
2018-04-22T07:12:53.465Z,14.60
2018-04-22T07:15:21.908Z,15.20
2018-04-22T07:17:50.099Z,15.20
2018-04-22T07:20:18.371Z,15.40
2018-04-22T07:22:46.016Z,15.60
2018-04-22T07:25:13.622Z,15.70
2018-04-22T07:27:42.027Z,16.20
2018-04-22T07:30:09.649Z,16.20
2018-04-22T07:32:37.283Z,16.40
2018-04-22T07:35:04.909Z,16.50
2018-04-22T07:37:32.556Z,16.70
2018-04-22T07:40:00.202Z,16.90
2018-04-22T07:42:28.644Z,17.40
2018-04-22T07:44:56.261Z,17.40
2018-04-22T07:47:23.909Z,17.60
2018-04-22T07:49:52.280Z,17.90
2018-04-22T07:52:20.691Z,18.10
2018-04-22T07:54:49.400Z,18.10
2018-04-22T07:57:17.042Z,18.10
2018-04-22T07:59:44.673Z,18.20
2018-04-22T08:02:13.127Z,18.20
2018-04-22T08:04:40.781Z,18.20
2018-04-22T08:07:08.454Z,18.60
2018-04-22T08:09:36.100Z,18.70
2018-04-22T08:12:03.730Z,18.90
2018-04-22T08:14:31.406Z,19.10
2018-04-22T08:16:59.044Z,19.40
2018-04-22T08:19:26.710Z,19.70
2018-04-22T08:21:54.336Z,19.90
2018-04-22T08:24:22.758Z,19.90
2018-04-22T08:26:50.397Z,19.90
2018-04-22T08:29:18.090Z,20.20
2018-04-22T08:31:45.771Z,20.50
2018-04-22T08:34:13.458Z,20.20
2018-04-22T08:36:41.109Z,20.10
2018-04-22T08:39:09.586Z,20.50
2018-04-22T08:41:38.012Z,20.90
2018-04-22T08:44:05.698Z,20.90
2018-04-22T08:46:33.337Z,20.80
2018-04-22T08:49:00.994Z,20.60
2018-04-22T08:51:28.637Z,20.80
2018-04-22T08:53:56.329Z,20.70
2018-04-22T08:56:24.058Z,21.20
2018-04-22T08:58:51.695Z,21.50
2018-04-22T09:01:20.485Z,21.80
2018-04-22T09:03:48.560Z,22.10
2018-04-22T09:06:16.989Z,21.70
2018-04-22T09:08:44.609Z,21.70
2018-04-22T09:11:12.273Z,22.20
2018-04-22T09:13:40.671Z,22.50
2018-04-22T09:16:08.338Z,22.40
2018-04-22T09:18:35.985Z,22.40
2018-04-22T09:21:03.622Z,22.90
2018-04-22T09:23:31.278Z,23.00
2018-04-22T09:25:58.934Z,23.20
2018-04-22T09:28:26.595Z,23.50
2018-04-22T09:30:54.256Z,23.60
2018-04-22T09:33:21.917Z,23.90
2018-04-22T09:35:50.143Z,24.00
2018-04-22T09:38:18.849Z,24.00
2018-04-22T09:40:46.491Z,24.00
2018-04-22T09:43:14.153Z,24.20
2018-04-22T09:45:41.794Z,24.50
2018-04-22T09:48:09.666Z,24.70
2018-04-22T09:50:37.296Z,24.80
2018-04-22T09:53:04.972Z,24.80
2018-04-22T09:55:33.376Z,24.60
2018-04-22T09:58:01.058Z,24.50
2018-04-22T10:00:32.742Z,24.60
2018-04-22T10:03:06.969Z,24.60
2018-04-22T10:05:40.394Z,24.30
2018-04-22T10:08:08.065Z,24.60
2018-04-22T10:10:35.717Z,24.10
2018-04-22T10:13:03.401Z,24.60
2018-04-22T10:15:31.075Z,23.90
2018-04-22T10:17:58.743Z,23.50
2018-04-22T10:20:26.424Z,23.20
2018-04-22T10:22:54.118Z,23.30
2018-04-22T10:25:21.768Z,23.20
2018-04-22T10:27:50.606Z,23.80
2018-04-22T10:30:19.316Z,23.20
2018-04-22T10:32:47.210Z,23.70
2018-04-22T10:35:14.876Z,24.30
2018-04-22T10:37:43.294Z,24.60
2018-04-22T10:40:10.988Z,24.60
2018-04-22T10:42:38.604Z,25.10
2018-04-22T10:45:07.041Z,25.20
2018-04-22T10:47:35.441Z,25.60
2018-04-22T10:50:03.878Z,25.80
2018-04-22T10:52:31.531Z,25.80
2018-04-22T10:54:59.210Z,25.80
2018-04-22T10:57:26.867Z,25.60
2018-04-22T10:59:54.578Z,25.80
2018-04-22T11:02:22.200Z,26.20
2018-04-22T11:04:49.920Z,26.60
2018-04-22T11:07:18.130Z,26.30
2018-04-22T11:09:45.783Z,26.20
2018-04-22T11:12:13.441Z,26.20
2018-04-22T11:14:41.113Z,25.30
2018-04-22T11:17:08.758Z,24.80
2018-04-22T11:19:36.384Z,25.40
2018-04-22T11:22:04.072Z,25.90
2018-04-22T11:24:31.670Z,26.20
2018-04-22T11:26:59.321Z,25.90
2018-04-22T11:29:26.996Z,25.20
2018-04-22T11:31:55.435Z,26.50
2018-04-22T11:34:23.124Z,26.50
2018-04-22T11:36:50.788Z,26.90
2018-04-22T11:39:19.381Z,26.60
2018-04-22T11:41:47.024Z,26.10
2018-04-22T11:44:14.708Z,26.50
2018-04-22T11:46:43.150Z,27.30
2018-04-22T11:49:10.825Z,27.30
2018-04-22T11:51:38.498Z,27.50
2018-04-22T11:54:06.166Z,27.70
2018-04-22T11:56:34.585Z,27.00
2018-04-22T11:59:02.293Z,27.00
2018-04-22T12:01:29.945Z,27.00
2018-04-22T12:03:57.630Z,26.80
2018-04-22T12:06:25.244Z,27.00
2018-04-22T12:08:52.941Z,27.00
2018-04-22T12:11:20.553Z,26.20
2018-04-22T12:13:49.173Z,26.80
2018-04-22T12:16:16.772Z,27.50
2018-04-22T12:18:45.177Z,26.70
2018-04-22T12:21:12.781Z,26.70
2018-04-22T12:23:40.429Z,25.80
2018-04-22T12:26:08.065Z,25.70
2018-04-22T12:28:35.685Z,26.20
2018-04-22T12:31:04.061Z,27.10
2018-04-22T12:33:32.477Z,27.70
2018-04-22T12:36:00.098Z,27.70
2018-04-22T12:38:28.520Z,27.80
2018-04-22T12:40:56.132Z,27.70
2018-04-22T12:43:23.753Z,27.10
2018-04-22T12:45:51.390Z,26.70
2018-04-22T12:48:20.321Z,26.90
2018-04-22T12:50:48.935Z,27.00
2018-04-22T12:53:17.985Z,25.80
2018-04-22T12:55:45.631Z,25.70
2018-04-22T12:58:13.249Z,25.60
2018-04-22T13:00:41.661Z,26.20
2018-04-22T13:03:09.269Z,26.20
2018-04-22T13:05:36.901Z,26.20
2018-04-22T13:08:04.509Z,26.00
2018-04-22T13:10:32.936Z,25.60
2018-04-22T13:13:00.558Z,25.50
2018-04-22T13:15:28.968Z,25.70
2018-04-22T13:17:57.389Z,25.10
2018-04-22T13:20:25.043Z,25.00
2018-04-22T13:22:52.665Z,25.10
2018-04-22T13:25:20.318Z,25.00
2018-04-22T13:27:49.050Z,25.30
2018-04-22T13:30:16.656Z,25.40
2018-04-22T13:32:44.293Z,26.00
2018-04-22T13:35:11.927Z,25.80
2018-04-22T13:37:39.581Z,26.50
2018-04-22T13:40:07.243Z,26.50
2018-04-22T13:42:34.909Z,26.10
2018-04-22T13:45:02.541Z,25.50
2018-04-22T13:47:30.194Z,25.80
2018-04-22T13:49:57.828Z,25.50
2018-04-22T13:52:26.240Z,25.70
2018-04-22T13:54:53.860Z,25.70
2018-04-22T13:57:22.274Z,25.80
2018-04-22T13:59:49.897Z,25.80
2018-04-22T14:02:18.025Z,25.80
2018-04-22T14:04:45.652Z,25.80
2018-04-22T14:07:13.308Z,25.40
2018-04-22T14:09:40.946Z,25.40
2018-04-22T14:12:08.619Z,25.80
2018-04-22T14:14:37.026Z,26.00
2018-04-22T14:17:04.698Z,26.00
2018-04-22T14:19:32.328Z,26.20
2018-04-22T14:22:00.727Z,26.20
2018-04-22T14:24:28.380Z,26.20
2018-04-22T14:26:55.996Z,26.10
2018-04-22T14:29:23.644Z,25.80
2018-04-22T14:31:51.282Z,25.90
2018-04-22T14:34:19.889Z,25.90
2018-04-22T14:36:48.037Z,25.80
2018-04-22T14:39:15.694Z,25.80
2018-04-22T14:41:43.299Z,25.50
2018-04-22T14:44:22.734Z,25.80
2018-04-22T14:46:50.351Z,26.10
2018-04-22T14:49:19.168Z,26.60
2018-04-22T14:51:46.788Z,26.90
2018-04-22T14:54:14.441Z,26.70
2018-04-22T14:56:42.056Z,26.30
2018-04-22T14:59:09.713Z,26.20
2018-04-22T15:01:37.335Z,26.30
2018-04-22T15:04:04.986Z,25.80
2018-04-22T15:06:32.615Z,25.00
2018-04-22T15:09:00.268Z,25.40
2018-04-22T15:11:27.911Z,25.90
2018-04-22T15:13:55.517Z,26.80
2018-04-22T15:16:23.932Z,28.60
2018-04-22T15:18:52.313Z,29.20
2018-04-22T15:21:19.983Z,29.10
2018-04-22T15:23:47.979Z,29.90
2018-04-22T15:26:15.688Z,30.20
2018-04-22T15:28:44.065Z,30.60
2018-04-22T15:31:11.722Z,30.90
2018-04-22T15:33:41.413Z,30.90
2018-04-22T15:36:09.833Z,32.00
2018-04-22T15:38:37.457Z,32.00
2018-04-22T15:41:05.868Z,31.80
2018-04-22T15:43:33.502Z,31.80
2018-04-22T15:46:01.181Z,31.30
2018-04-22T15:48:28.818Z,31.10
2018-04-22T15:50:56.451Z,30.50
2018-04-22T15:53:24.111Z,30.30
2018-04-22T15:55:51.740Z,30.20
2018-04-22T15:58:20.641Z,30.10
2018-04-22T16:00:48.695Z,30.10
2018-04-22T16:03:16.377Z,30.10
2018-04-22T16:05:43.984Z,29.80
2018-04-22T16:08:12.434Z,29.60
2018-04-22T16:10:40.351Z,29.50
2018-04-22T16:13:08.948Z,29.40
2018-04-22T16:15:37.361Z,29.30
2018-04-22T16:18:05.022Z,29.20
2018-04-22T16:20:33.092Z,29.00
2018-04-22T16:23:00.754Z,28.70
2018-04-22T16:25:28.394Z,28.40
2018-04-22T16:27:56.055Z,28.30
2018-04-22T16:30:23.673Z,28.10
2018-04-22T16:32:51.355Z,28.10
2018-04-22T16:35:20.239Z,28.00
2018-04-22T16:37:48.621Z,27.80
2018-04-22T16:40:16.277Z,27.80
2018-04-22T16:42:43.894Z,27.90
2018-04-22T16:45:11.527Z,28.70
2018-04-22T16:47:39.157Z,29.70
2018-04-22T16:50:06.810Z,30.50
2018-04-22T16:52:35.233Z,31.00
2018-04-22T16:55:02.896Z,31.00
2018-04-22T16:57:30.532Z,31.20
2018-04-22T16:59:58.244Z,31.30
2018-04-22T17:02:25.863Z,31.30
2018-04-22T17:04:53.509Z,30.70
2018-04-22T17:07:21.157Z,30.00
2018-04-22T17:09:50.176Z,29.10
2018-04-22T17:12:19.139Z,28.50
2018-04-22T17:14:46.792Z,28.10
2018-04-22T17:17:15.187Z,27.40
2018-04-22T17:19:42.873Z,27.40
2018-04-22T17:22:10.588Z,27.10
2018-04-22T17:24:38.972Z,26.30
2018-04-22T17:27:07.687Z,26.30
2018-04-22T17:29:35.309Z,26.00
2018-04-22T17:32:03.813Z,25.40
2018-04-22T17:34:31.418Z,25.30
2018-04-22T17:36:59.053Z,25.00
2018-04-22T17:39:26.684Z,24.90
2018-04-22T17:41:54.354Z,24.70
2018-04-22T17:44:22.792Z,24.40
2018-04-22T17:46:50.492Z,24.20
2018-04-22T17:49:18.103Z,24.00
2018-04-22T17:51:45.798Z,23.90
2018-04-22T17:54:14.198Z,23.40
2018-04-22T17:56:41.957Z,23.40
2018-04-22T17:59:09.583Z,23.20
2018-04-22T18:01:37.298Z,23.00
2018-04-22T18:04:04.942Z,22.80
2018-04-22T18:06:32.687Z,22.70
2018-04-22T18:09:01.080Z,22.50
2018-04-22T18:11:28.723Z,22.50
2018-04-22T18:13:56.356Z,22.40
2018-04-22T18:16:23.979Z,22.30
2018-04-22T18:18:51.617Z,22.10
2018-04-22T18:21:19.997Z,21.80
2018-04-22T18:23:49.338Z,21.60
2018-04-22T18:26:16.945Z,21.60
2018-04-22T18:28:45.339Z,21.40
2018-04-22T18:31:13.725Z,21.30
2018-04-22T18:33:41.368Z,21.30
2018-04-22T18:36:09.777Z,21.10
2018-04-22T18:38:37.416Z,21.10
2018-04-22T18:41:05.061Z,21.00
2018-04-22T18:43:33.467Z,20.70
2018-04-22T18:46:01.088Z,20.70
2018-04-22T18:48:28.728Z,20.70
2018-04-22T18:50:56.338Z,20.60
2018-04-22T18:53:24.750Z,20.30
2018-04-22T18:55:52.371Z,20.30
2018-04-22T18:58:20.011Z,20.20
2018-04-22T19:00:48.070Z,20.10
2018-04-22T19:03:15.706Z,20.10
2018-04-22T19:05:43.366Z,19.90
2018-04-22T19:08:10.969Z,19.90
2018-04-22T19:10:38.635Z,19.90
2018-04-22T19:13:07.022Z,19.80
2018-04-22T19:15:35.436Z,19.70
2018-04-22T19:18:03.044Z,19.70
2018-04-22T19:20:30.690Z,19.70
2018-04-22T19:22:58.316Z,19.60
2018-04-22T19:25:25.990Z,19.50
2018-04-22T19:27:53.604Z,19.40
2018-04-22T19:30:22.037Z,19.30
2018-04-22T19:32:49.661Z,19.20
2018-04-22T19:35:18.074Z,19.20
2018-04-22T19:37:45.698Z,19.20
2018-04-22T19:40:13.344Z,19.10
2018-04-22T19:42:41.730Z,19.00
2018-04-22T19:45:10.172Z,18.90
2018-04-22T19:47:37.785Z,18.80
2018-04-22T19:50:05.408Z,18.80
2018-04-22T19:52:33.050Z,18.80
2018-04-22T19:55:00.676Z,18.80
2018-04-22T19:57:29.069Z,18.70
2018-04-22T19:59:56.673Z,18.70
2018-04-22T20:02:25.084Z,18.70
2018-04-22T20:04:52.688Z,18.70
2018-04-22T20:07:20.375Z,18.70
2018-04-22T20:09:48.028Z,18.60
2018-04-22T20:12:15.669Z,18.60
2018-04-22T20:14:43.288Z,18.60
2018-04-22T20:17:10.921Z,18.60
2018-04-22T20:19:39.304Z,18.50
2018-04-22T20:22:07.713Z,18.50
2018-04-22T20:24:35.329Z,18.50
2018-04-22T20:27:02.967Z,18.50
2018-04-22T20:29:30.590Z,18.50
2018-04-22T20:31:58.213Z,18.40
2018-04-22T20:34:25.849Z,18.40
2018-04-22T20:36:53.460Z,18.40
2018-04-22T20:39:21.100Z,18.30
2018-04-22T20:41:50.601Z,18.30
2018-04-22T20:44:20.136Z,18.30
2018-04-22T20:46:48.354Z,18.20
2018-04-22T20:49:16.001Z,18.30
2018-04-22T20:51:43.601Z,18.20
2018-04-22T20:54:11.233Z,18.20
2018-04-22T20:56:38.848Z,18.20
2018-04-22T20:59:06.504Z,18.10
2018-04-22T21:01:34.866Z,17.00
2018-04-22T21:04:03.275Z,17.40
2018-04-22T21:06:30.896Z,17.40
2018-04-22T21:08:59.383Z,18.00
2018-04-22T21:11:27.761Z,18.20
2018-04-22T21:13:55.421Z,18.10
2018-04-22T21:16:23.045Z,18.30
2018-04-22T21:18:50.770Z,18.40
2018-04-22T21:21:19.438Z,18.60
2018-04-22T21:23:49.015Z,18.70
2018-04-22T21:26:16.659Z,18.70
2018-04-22T21:28:44.289Z,18.70
2018-04-22T21:31:11.927Z,18.70
2018-04-22T21:33:40.393Z,18.70
2018-04-22T21:36:08.801Z,18.60
2018-04-22T21:38:36.438Z,18.60
2018-04-22T21:41:04.850Z,18.50
2018-04-22T21:43:32.562Z,18.50
2018-04-22T21:46:01.036Z,18.40
2018-04-22T21:48:28.695Z,18.30
2018-04-22T21:50:56.320Z,18.20
2018-04-22T21:53:31.584Z,18.10
2018-04-22T21:55:59.252Z,17.80
2018-04-22T21:58:26.930Z,17.50
2018-04-22T22:00:54.560Z,17.10
2018-04-22T22:03:22.252Z,17.20
2018-04-22T22:05:49.897Z,17.20
2018-04-22T22:08:18.046Z,17.20
2018-04-22T22:10:46.544Z,17.20
2018-04-22T22:13:14.233Z,17.10
2018-04-22T22:15:41.844Z,17.20
2018-04-22T22:18:09.471Z,17.10
2018-04-22T22:20:37.837Z,16.90
2018-04-22T22:23:05.516Z,16.90
2018-04-22T22:25:33.877Z,16.90
2018-04-22T22:28:01.556Z,16.90
2018-04-22T22:30:29.172Z,16.80
2018-04-22T22:32:56.922Z,16.90
2018-04-22T22:35:24.517Z,16.80
2018-04-22T22:37:52.149Z,16.80
2018-04-22T22:40:19.756Z,16.80
2018-04-22T22:42:49.288Z,16.60
2018-04-22T22:45:16.903Z,16.60
2018-04-22T22:47:44.545Z,16.60
2018-04-22T22:50:12.172Z,16.50
2018-04-22T22:52:39.915Z,16.50
2018-04-22T22:55:07.525Z,16.50
2018-04-22T22:57:35.117Z,16.30
2018-04-22T23:00:03.513Z,16.30
2018-04-22T23:02:31.973Z,16.40
2018-04-22T23:04:59.605Z,16.40
2018-04-22T23:07:27.213Z,16.40
2018-04-22T23:09:55.600Z,16.60
2018-04-22T23:12:23.636Z,16.60
2018-04-22T23:14:51.311Z,16.70
2018-04-22T23:17:19.731Z,16.60
2018-04-22T23:19:47.363Z,16.60
2018-04-22T23:22:15.023Z,16.80
2018-04-22T23:24:43.457Z,16.70
2018-04-22T23:27:11.141Z,16.70
2018-04-22T23:29:38.844Z,16.70
2018-04-22T23:32:06.456Z,16.60
2018-04-22T23:34:34.097Z,16.60
2018-04-22T23:37:01.732Z,16.50
2018-04-22T23:39:29.364Z,16.40
2018-04-22T23:41:57.250Z,16.40
2018-04-22T23:44:24.968Z,16.40
2018-04-22T23:46:53.459Z,16.30
2018-04-22T23:49:21.237Z,16.30
2018-04-22T23:51:48.918Z,16.20
2018-04-22T23:54:16.529Z,16.10
2018-04-22T23:56:44.152Z,16.00
2018-04-22T23:59:11.784Z,16.00
